createdAt,value
2023-03-01T00:02:07.539Z,100794.31
2023-03-01T00:04:33.926Z,100795.00
2023-03-01T00:07:00.232Z,100785.78
2023-03-01T00:09:26.547Z,100792.00
2023-03-01T00:11:52.911Z,100787.69
2023-03-01T00:14:19.282Z,100785.84
2023-03-01T00:16:47.032Z,100789.13
2023-03-01T00:19:16.668Z,100794.88
2023-03-01T00:21:43.342Z,100791.13
2023-03-01T00:24:11.254Z,100791.84
2023-03-01T00:26:37.645Z,100782.47
2023-03-01T00:29:04.667Z,100790.28
2023-03-01T00:31:32.809Z,100785.00
2023-03-01T00:34:02.397Z,100779.97
2023-03-01T00:36:35.506Z,100785.97
2023-03-01T00:39:02.731Z,100789.19
2023-03-01T00:41:29.312Z,100783.63
2023-03-01T00:43:56.393Z,100780.88
2023-03-01T00:46:26.655Z,100783.22
2023-03-01T00:48:53.822Z,100768.66
2023-03-01T00:51:24.165Z,100769.28
2023-03-01T00:53:55.536Z,100766.84
2023-03-01T00:56:22.303Z,100752.88
2023-03-01T00:58:48.633Z,100761.50
2023-03-01T01:01:18.872Z,100765.44
2023-03-01T01:03:51.313Z,100755.03
2023-03-01T01:06:23.557Z,100758.50
2023-03-01T01:08:50.971Z,100749.69
2023-03-01T01:11:18.031Z,100752.03
2023-03-01T01:13:46.740Z,100750.13
2023-03-01T01:16:13.968Z,100748.59
2023-03-01T01:18:41.368Z,100741.78
2023-03-01T01:21:11.980Z,100745.09
2023-03-01T01:23:39.415Z,100744.19
2023-03-01T01:26:12.896Z,100742.38
2023-03-01T01:28:39.669Z,100739.69
2023-03-01T01:31:06.642Z,100745.03
2023-03-01T01:33:34.163Z,100735.09
2023-03-01T01:36:00.694Z,100711.50
2023-03-01T01:38:27.128Z,100724.09
2023-03-01T01:40:53.585Z,100712.25
2023-03-01T01:43:25.870Z,100724.81
2023-03-01T01:45:57.988Z,100720.56
2023-03-01T01:48:41.030Z,100726.44
2023-03-01T01:51:16.394Z,100725.72
2023-03-01T01:53:46.745Z,100719.06
2023-03-01T01:56:16.131Z,100723.69
2023-03-01T01:58:43.585Z,100720.91
2023-03-01T02:01:10.453Z,100713.84
2023-03-01T02:03:42.979Z,100713.41
2023-03-01T02:06:12.134Z,100719.38
2023-03-01T02:08:41.325Z,100714.69
2023-03-01T02:11:09.620Z,100722.47
2023-03-01T02:13:36.040Z,100721.44
2023-03-01T02:16:10.226Z,100726.53
2023-03-01T02:18:37.914Z,100723.84
2023-03-01T02:21:18.349Z,100717.72
2023-03-01T02:23:44.698Z,100717.09
2023-03-01T02:26:30.417Z,100722.03
2023-03-01T02:28:59.530Z,100710.25
2023-03-01T02:31:45.785Z,100713.63
2023-03-01T02:34:20.401Z,100710.25
2023-03-01T02:36:50.643Z,100706.81
2023-03-01T02:39:21.578Z,100701.53
2023-03-01T02:41:52.872Z,100702.50
2023-03-01T02:44:19.674Z,100700.78
2023-03-01T02:46:49.860Z,100698.72
2023-03-01T02:49:37.412Z,100687.38
2023-03-01T02:52:34.015Z,100680.38
2023-03-01T02:55:13.707Z,100670.34
2023-03-01T02:57:43.728Z,100669.31
2023-03-01T03:00:19.952Z,100671.59
2023-03-01T03:02:48.155Z,100668.34
2023-03-01T03:05:25.291Z,100665.47
2023-03-01T03:07:55.318Z,100664.28
2023-03-01T03:10:26.003Z,100668.41
2023-03-01T03:13:20.054Z,100654.91
2023-03-01T03:15:46.412Z,100658.75
2023-03-01T03:18:15.752Z,100648.75
2023-03-01T03:20:44.067Z,100657.44
2023-03-01T03:23:10.551Z,100663.09
2023-03-01T03:25:38.607Z,100656.91
2023-03-01T03:28:10.412Z,100646.47
2023-03-01T03:30:39.857Z,100645.56
2023-03-01T03:33:06.946Z,100648.25
2023-03-01T03:35:38.940Z,100647.53
2023-03-01T03:38:10.093Z,100632.69
2023-03-01T03:40:38.251Z,100631.78
2023-03-01T03:43:06.374Z,100624.19
2023-03-01T03:45:34.325Z,100613.00
2023-03-01T03:48:02.099Z,100619.34
2023-03-01T03:50:28.804Z,100610.63
2023-03-01T03:52:55.172Z,100615.00
2023-03-01T03:55:21.564Z,100615.38
2023-03-01T03:57:52.222Z,100616.44
2023-03-01T04:00:20.803Z,100616.16
2023-03-01T04:02:48.767Z,100615.03
2023-03-01T04:05:17.813Z,100608.00
2023-03-01T04:07:44.956Z,100613.47
2023-03-01T04:10:17.249Z,100610.47
2023-03-01T04:12:44.110Z,100616.16
2023-03-01T04:15:13.970Z,100613.97
2023-03-01T04:17:45.751Z,100624.31
2023-03-01T04:20:25.554Z,100628.66
2023-03-01T04:22:58.172Z,100616.53
2023-03-01T04:25:25.402Z,100628.78
2023-03-01T04:27:52.553Z,100626.03
2023-03-01T04:30:18.925Z,100623.19
2023-03-01T04:32:45.305Z,100618.94
2023-03-01T04:35:11.610Z,100624.66
2023-03-01T04:37:39.392Z,100621.47
2023-03-01T04:40:17.207Z,100627.72
2023-03-01T04:42:44.004Z,100626.66
2023-03-01T04:45:13.926Z,100619.03
2023-03-01T04:47:47.927Z,100619.03
2023-03-01T04:50:18.179Z,100621.69
2023-03-01T04:52:45.176Z,100622.53
2023-03-01T04:55:12.048Z,100633.63
2023-03-01T04:57:38.352Z,100627.47
2023-03-01T05:00:21.384Z,100623.78
2023-03-01T05:02:49.914Z,100623.34
2023-03-01T05:05:16.535Z,100612.66
2023-03-01T05:07:42.848Z,100613.56
2023-03-01T05:10:10.156Z,100618.72
2023-03-01T05:12:38.203Z,100619.31
2023-03-01T05:15:07.866Z,100616.31
2023-03-01T05:17:35.138Z,100618.41
2023-03-01T05:20:01.917Z,100611.44
2023-03-01T05:22:28.239Z,100610.75
2023-03-01T05:24:54.948Z,100609.69
2023-03-01T05:27:23.030Z,100603.84
2023-03-01T05:29:49.365Z,100602.03
2023-03-01T05:32:16.579Z,100604.78
2023-03-01T05:34:43.024Z,100608.06
2023-03-01T05:37:09.839Z,100612.44
2023-03-01T05:39:37.212Z,100608.06
2023-03-01T05:42:03.643Z,100610.16
2023-03-01T05:44:30.008Z,100610.09
2023-03-01T05:46:56.458Z,100612.38
2023-03-01T05:49:24.839Z,100610.09
2023-03-01T05:51:53.244Z,100613.97
2023-03-01T05:54:21.159Z,100608.31
2023-03-01T05:56:47.823Z,100599.66
2023-03-01T05:59:14.782Z,100611.06
2023-03-01T06:01:41.596Z,100596.38
2023-03-01T06:04:07.925Z,100606.59
2023-03-01T06:06:38.208Z,100597.16
2023-03-01T06:09:05.946Z,100597.66
2023-03-01T06:11:35.036Z,100594.03
2023-03-01T06:14:01.428Z,100600.16
2023-03-01T06:16:27.841Z,100595.91
2023-03-01T06:18:54.261Z,100598.63
2023-03-01T06:21:20.537Z,100587.34
2023-03-01T06:23:46.837Z,100595.13
2023-03-01T06:26:13.176Z,100596.69
2023-03-01T06:28:39.488Z,100590.56
2023-03-01T06:31:09.338Z,100602.38
2023-03-01T06:33:36.886Z,100590.31
2023-03-01T06:36:03.402Z,100593.72
2023-03-01T06:38:29.718Z,100592.88
2023-03-01T06:40:57.500Z,100593.88
2023-03-01T06:43:24.684Z,100586.00
2023-03-01T06:45:51.348Z,100591.19
2023-03-01T06:48:18.227Z,100592.78
2023-03-01T06:50:44.702Z,100592.19
2023-03-01T06:53:11.491Z,100596.31
2023-03-01T06:55:37.830Z,100584.91
2023-03-01T06:58:04.413Z,100593.84
2023-03-01T07:00:31.241Z,100587.44
2023-03-01T07:03:02.686Z,100595.13
2023-03-01T07:05:29.616Z,100593.19
2023-03-01T07:07:57.129Z,100592.44
2023-03-01T07:10:23.919Z,100599.44
2023-03-01T07:12:50.249Z,100608.88
2023-03-01T07:15:16.791Z,100598.34
2023-03-01T07:17:45.308Z,100601.81
2023-03-01T07:20:12.320Z,100601.72
2023-03-01T07:22:41.725Z,100593.00
2023-03-01T07:25:08.474Z,100585.22
2023-03-01T07:27:34.884Z,100585.84
2023-03-01T07:30:01.483Z,100589.44
2023-03-01T07:32:27.840Z,100585.66
2023-03-01T07:34:54.161Z,100581.94
2023-03-01T07:37:20.600Z,100583.47
2023-03-01T07:39:46.883Z,100588.75
2023-03-01T07:42:13.191Z,100595.31
2023-03-01T07:44:39.516Z,100590.00
2023-03-01T07:47:05.974Z,100579.81
2023-03-01T07:49:32.289Z,100565.75
2023-03-01T07:51:58.882Z,100567.28
2023-03-01T07:54:25.344Z,100579.00
2023-03-01T07:56:51.660Z,100560.69
2023-03-01T07:59:17.992Z,100567.31
2023-03-01T08:01:44.394Z,100562.22
2023-03-01T08:04:11.364Z,100569.09
2023-03-01T08:06:38.139Z,100553.34
2023-03-01T08:09:04.537Z,100559.00
2023-03-01T08:11:31.038Z,100571.22
2023-03-01T08:13:58.290Z,100562.13
2023-03-01T08:16:24.910Z,100566.47
2023-03-01T08:18:51.244Z,100569.94
2023-03-01T08:21:18.600Z,100564.63
2023-03-01T08:23:45.515Z,100557.78
2023-03-01T08:26:19.277Z,100559.78
2023-03-01T08:28:46.344Z,100564.31
2023-03-01T08:31:36.438Z,100560.88
2023-03-01T08:34:06.033Z,100558.19
2023-03-01T08:36:35.883Z,100562.31
2023-03-01T08:39:02.305Z,100566.53
2023-03-01T08:41:29.054Z,100562.09
2023-03-01T08:43:59.440Z,100563.38
2023-03-01T08:46:30.709Z,100559.13
2023-03-01T08:48:57.575Z,100552.94
2023-03-01T08:51:25.882Z,100556.34
2023-03-01T08:53:52.757Z,100550.91
2023-03-01T08:56:20.265Z,100551.94
2023-03-01T08:58:48.125Z,100547.88
2023-03-01T09:01:19.834Z,100546.72
2023-03-01T09:03:47.246Z,100541.94
2023-03-01T09:06:14.960Z,100536.59
2023-03-01T09:08:45.639Z,100532.50
2023-03-01T09:11:16.161Z,100518.09
2023-03-01T09:13:44.336Z,100522.19
2023-03-01T09:16:13.080Z,100535.88
2023-03-01T09:18:39.655Z,100529.28
2023-03-01T09:21:11.171Z,100520.31
2023-03-01T09:23:40.455Z,100519.72
2023-03-01T09:26:12.543Z,100522.06
2023-03-01T09:28:39.849Z,100520.28
2023-03-01T09:31:06.303Z,100527.28
2023-03-01T09:33:34.354Z,100522.81
2023-03-01T09:36:06.802Z,100516.28
2023-03-01T09:38:33.456Z,100513.28
2023-03-01T09:41:01.347Z,100508.16
2023-03-01T09:46:17.479Z,100508.41
2023-03-01T09:48:56.270Z,100509.75
2023-03-01T09:51:30.495Z,100512.09
2023-03-01T09:53:59.465Z,100507.03
2023-03-01T09:56:34.688Z,100504.09
2023-03-01T09:59:29.528Z,100506.97
2023-03-01T10:02:23.792Z,100512.69
2023-03-01T10:04:57.144Z,100482.09
2023-03-01T10:07:38.712Z,100487.66
2023-03-01T10:10:27.101Z,100484.06
2023-03-01T10:12:53.777Z,100476.34
2023-03-01T10:15:36.637Z,100475.13
2023-03-01T10:18:11.595Z,100463.84
2023-03-01T10:21:00.200Z,100467.03
2023-03-01T10:23:29.242Z,100472.75
2023-03-01T10:26:05.291Z,100471.38
2023-03-01T10:28:46.473Z,100456.00
2023-03-01T10:31:15.965Z,100456.38
2023-03-01T10:33:42.803Z,100454.31
2023-03-01T10:36:09.559Z,100460.47
2023-03-01T10:39:37.310Z,100461.94
2023-03-01T10:42:06.843Z,100449.97
2023-03-01T10:44:40.744Z,100434.88
2023-03-01T10:47:15.492Z,100441.63
2023-03-01T10:50:00.003Z,100430.84
2023-03-01T10:52:29.713Z,100435.63
2023-03-01T10:54:59.074Z,100442.41
2023-03-01T10:57:37.045Z,100424.91
2023-03-01T11:00:19.838Z,100418.19
2023-03-01T11:03:02.064Z,100431.00
2023-03-01T11:05:31.548Z,100420.59
2023-03-01T11:07:59.899Z,100412.28
2023-03-01T11:10:29.226Z,100416.03
2023-03-01T11:13:08.980Z,100421.78
2023-03-01T11:15:35.852Z,100416.13
2023-03-01T11:18:13.872Z,100408.84
2023-03-01T11:20:42.232Z,100401.22
2023-03-01T11:23:14.186Z,100399.81
2023-03-01T11:25:43.605Z,100398.03
2023-03-01T11:28:16.579Z,100388.16
2023-03-01T11:31:06.898Z,100390.66
2023-03-01T11:33:45.970Z,100387.38
2023-03-01T11:36:39.450Z,100373.69
2023-03-01T11:39:28.787Z,100371.66
2023-03-01T11:42:18.555Z,100379.56
2023-03-01T11:44:53.139Z,100373.44
2023-03-01T11:47:44.874Z,100364.88
2023-03-01T11:50:17.255Z,100350.97
2023-03-01T11:53:09.685Z,100362.00
2023-03-01T11:56:16.209Z,100355.66
2023-03-01T11:58:59.653Z,100356.78
2023-03-01T12:01:34.225Z,100357.38
2023-03-01T12:04:10.953Z,100348.59
2023-03-01T12:06:48.991Z,100331.19
2023-03-01T12:09:26.841Z,100336.06
2023-03-01T12:12:11.951Z,100335.34
2023-03-01T12:15:08.265Z,100324.50
2023-03-01T12:17:40.499Z,100326.06
2023-03-01T12:20:25.038Z,100315.03
2023-03-01T12:23:30.347Z,100311.88
2023-03-01T12:26:03.653Z,100294.97
2023-03-01T12:28:45.958Z,100301.56
2023-03-01T12:31:45.379Z,100288.00
2023-03-01T12:34:14.708Z,100294.44
2023-03-01T12:37:13.423Z,100281.78
2023-03-01T12:39:51.135Z,100284.19
2023-03-01T12:43:01.120Z,100285.06
2023-03-01T12:45:46.771Z,100280.88
2023-03-01T12:48:18.948Z,100281.50
2023-03-01T12:50:52.536Z,100281.34
2023-03-01T12:53:26.405Z,100275.94
2023-03-01T12:55:57.006Z,100281.31
2023-03-01T12:58:49.610Z,100262.34
2023-03-01T13:01:17.245Z,100262.56
2023-03-01T13:04:19.072Z,100241.25
2023-03-01T13:06:51.957Z,100243.50
2023-03-01T13:09:28.428Z,100237.47
2023-03-01T13:11:54.757Z,100236.06
2023-03-01T13:14:21.003Z,100241.97
2023-03-01T13:16:50.081Z,100228.25
2023-03-01T13:19:25.087Z,100228.91
2023-03-01T13:21:55.517Z,100241.50
2023-03-01T13:24:27.751Z,100245.38
2023-03-01T13:27:06.383Z,100225.53
2023-03-01T13:29:47.141Z,100229.31
2023-03-01T13:32:34.366Z,100240.09
2023-03-01T13:35:20.573Z,100243.94
2023-03-01T13:37:47.841Z,100226.31
2023-03-01T13:40:17.705Z,100226.69
2023-03-01T13:42:59.360Z,100236.59
2023-03-01T13:45:43.765Z,100221.13
2023-03-01T13:48:17.594Z,100216.88
2023-03-01T13:50:52.393Z,100211.22
2023-03-01T13:53:21.020Z,100209.66
2023-03-01T13:55:51.775Z,100211.91
2023-03-01T13:58:32.318Z,100210.44
2023-03-01T14:01:04.982Z,100195.13
2023-03-01T14:03:33.378Z,100200.53
2023-03-01T14:06:15.295Z,100203.00
2023-03-01T14:08:45.463Z,100198.75
2023-03-01T14:11:30.542Z,100203.25
2023-03-01T14:14:17.065Z,100204.66
2023-03-01T14:16:46.795Z,100205.38
2023-03-01T14:19:32.564Z,100210.28
2023-03-01T14:22:13.671Z,100200.38
2023-03-01T14:24:47.963Z,100209.34
2023-03-01T14:27:14.775Z,100210.72
2023-03-01T14:29:41.454Z,100185.88
2023-03-01T14:32:22.377Z,100194.84
2023-03-01T14:34:51.132Z,100187.31
2023-03-01T14:37:23.743Z,100194.88
2023-03-01T14:39:50.480Z,100190.88
2023-03-01T14:42:18.058Z,100190.97
2023-03-01T14:44:47.169Z,100179.66
2023-03-01T14:47:20.666Z,100185.44
2023-03-01T14:49:50.486Z,100195.72
2023-03-01T14:52:23.945Z,100183.69
2023-03-01T14:54:54.056Z,100191.88
2023-03-01T14:57:25.834Z,100185.59
2023-03-01T14:59:55.433Z,100173.91
2023-03-01T15:02:24.830Z,100176.31
2023-03-01T15:04:57.491Z,100163.41
2023-03-01T15:07:28.763Z,100157.72
2023-03-01T15:09:55.080Z,100150.69
2023-03-01T15:12:40.078Z,100149.09
2023-03-01T15:15:43.674Z,100144.75
2023-03-01T15:18:22.470Z,100129.25
2023-03-01T15:20:50.606Z,100140.00
2023-03-01T15:23:25.149Z,100146.88
2023-03-01T15:25:59.237Z,100142.53
2023-03-01T15:28:31.317Z,100134.84
2023-03-01T15:31:02.828Z,100136.03
2023-03-01T15:33:33.186Z,100148.41
2023-03-01T15:36:02.323Z,100140.41
2023-03-01T15:38:32.912Z,100144.59
2023-03-01T15:41:05.212Z,100138.16
2023-03-01T15:43:47.308Z,100153.31
2023-03-01T15:46:25.891Z,100141.34
2023-03-01T15:48:57.299Z,100147.94
2023-03-01T15:51:30.586Z,100131.06
2023-03-01T15:53:59.352Z,100147.38
2023-03-01T15:56:25.789Z,100147.06
2023-03-01T15:58:52.099Z,100146.03
2023-03-01T16:01:18.884Z,100150.25
2023-03-01T16:03:46.180Z,100150.16
2023-03-01T16:06:13.234Z,100147.09
2023-03-01T16:08:39.567Z,100148.25
2023-03-01T16:11:14.797Z,100147.28
2023-03-01T16:13:41.304Z,100148.75
2023-03-01T16:16:10.258Z,100153.00
2023-03-01T16:18:36.623Z,100148.53
2023-03-01T16:21:02.978Z,100154.53
2023-03-01T16:23:29.290Z,100160.81
2023-03-01T16:26:00.512Z,100157.63
2023-03-01T16:28:28.661Z,100155.09
2023-03-01T16:30:55.719Z,100165.13
2023-03-01T16:33:33.516Z,100155.22
2023-03-01T16:36:10.951Z,100164.78
2023-03-01T16:38:38.139Z,100165.47
2023-03-01T16:41:04.520Z,100164.69
2023-03-01T16:43:31.626Z,100156.13
2023-03-01T16:45:59.673Z,100162.47
2023-03-01T16:48:26.847Z,100158.63
2023-03-01T16:50:57.804Z,100165.56
2023-03-01T16:53:24.142Z,100158.41
2023-03-01T16:55:57.899Z,100164.81
2023-03-01T16:58:25.531Z,100164.13
2023-03-01T17:00:54.174Z,100162.56
2023-03-01T17:03:22.471Z,100167.28
2023-03-01T17:05:49.719Z,100170.78
2023-03-01T17:08:16.904Z,100170.28
2023-03-01T17:10:43.490Z,100165.13
2023-03-01T17:13:11.057Z,100166.66
2023-03-01T17:15:41.447Z,100175.94
2023-03-01T17:18:09.439Z,100171.31
2023-03-01T17:20:36.675Z,100168.97
2023-03-01T17:23:03.772Z,100179.63
2023-03-01T17:25:30.250Z,100180.25
2023-03-01T17:27:56.646Z,100190.19
2023-03-01T17:30:23.114Z,100184.84
2023-03-01T17:32:49.641Z,100184.44
2023-03-01T17:35:16.070Z,100197.03
2023-03-01T17:37:46.220Z,100201.06
2023-03-01T17:40:13.165Z,100185.13
2023-03-01T17:42:39.562Z,100197.09
2023-03-01T17:45:06.720Z,100188.63
2023-03-01T17:47:33.012Z,100190.59
2023-03-01T17:50:00.243Z,100197.28
2023-03-01T17:52:26.561Z,100187.56
2023-03-01T17:54:52.890Z,100199.56
2023-03-01T17:57:19.201Z,100193.47
2023-03-01T17:59:45.550Z,100197.31
2023-03-01T18:02:12.999Z,100190.88
2023-03-01T18:04:39.467Z,100183.34
2023-03-01T18:07:05.790Z,100190.78
2023-03-01T18:09:32.112Z,100195.19
2023-03-01T18:11:58.695Z,100205.94
2023-03-01T18:14:25.798Z,100200.72
2023-03-01T18:16:52.149Z,100197.97
2023-03-01T18:19:18.706Z,100199.16
2023-03-01T18:21:44.998Z,100197.81
2023-03-01T18:24:11.318Z,100191.53
2023-03-01T18:26:39.256Z,100200.38
2023-03-01T18:29:07.587Z,100199.03
2023-03-01T18:31:33.968Z,100190.41
2023-03-01T18:34:03.275Z,100186.31
2023-03-01T18:36:32.964Z,100178.22
2023-03-01T18:39:01.227Z,100177.91
2023-03-01T18:41:28.509Z,100185.78
2023-03-01T18:43:58.407Z,100181.31
2023-03-01T18:46:25.793Z,100179.06
2023-03-01T18:48:53.377Z,100194.97
2023-03-01T18:51:22.859Z,100188.19
2023-03-01T18:53:49.339Z,100188.25
2023-03-01T18:56:15.734Z,100184.72
2023-03-01T18:58:42.974Z,100173.38
2023-03-01T19:01:15.904Z,100178.22
2023-03-01T19:03:57.735Z,100131.22
2023-03-01T19:06:31.283Z,100171.06
2023-03-01T19:08:57.783Z,100163.06
2023-03-01T19:11:26.879Z,100167.56
2023-03-01T19:13:54.270Z,100152.22
2023-03-01T19:17:05.108Z,100164.75
2023-03-01T19:19:32.686Z,100153.09
2023-03-01T19:22:05.633Z,100160.94
2023-03-01T19:24:32.750Z,100167.19
2023-03-01T19:26:59.061Z,100166.25
2023-03-01T19:29:26.118Z,100163.75
2023-03-01T19:31:52.484Z,100175.34
2023-03-01T19:34:18.819Z,100194.88
2023-03-01T19:36:45.185Z,100188.59
2023-03-01T19:39:13.354Z,100174.28
2023-03-01T19:41:40.100Z,100174.56
2023-03-01T19:44:08.495Z,100182.13
2023-03-01T19:46:35.483Z,100186.59
2023-03-01T19:49:03.337Z,100187.31
2023-03-01T19:51:33.262Z,100183.19
2023-03-01T19:53:59.980Z,100183.13
2023-03-01T19:56:26.317Z,100180.25
2023-03-01T19:59:00.056Z,100174.44
2023-03-01T20:01:32.702Z,100183.75
2023-03-01T20:03:59.014Z,100181.97
2023-03-01T20:06:25.643Z,100186.28
2023-03-01T20:08:52.454Z,100185.50
2023-03-01T20:11:19.780Z,100187.00
2023-03-01T20:13:46.169Z,100190.81
2023-03-01T20:16:16.526Z,100182.50
2023-03-01T20:18:42.951Z,100183.28
2023-03-01T20:21:21.477Z,100191.34
2023-03-01T20:23:49.791Z,100186.75
2023-03-01T20:26:19.380Z,100184.66
2023-03-01T20:28:47.444Z,100201.72
2023-03-01T20:31:15.761Z,100191.31
2023-03-01T20:33:42.140Z,100185.16
2023-03-01T20:36:10.057Z,100194.50
2023-03-01T20:38:37.420Z,100197.22
2023-03-01T20:41:06.348Z,100187.66
2023-03-01T20:43:33.456Z,100188.06
2023-03-01T20:46:03.981Z,100189.56
2023-03-01T20:48:30.301Z,100191.69
2023-03-01T20:50:59.677Z,100189.41
2023-03-01T20:53:26.000Z,100191.94
2023-03-01T20:55:52.323Z,100195.09
2023-03-01T20:58:18.603Z,100194.63
2023-03-01T21:00:45.005Z,100196.84
2023-03-01T21:03:11.337Z,100192.81
2023-03-01T21:05:37.695Z,100193.91
2023-03-01T21:08:04.172Z,100190.28
2023-03-01T21:10:32.264Z,100189.78
2023-03-01T21:12:58.669Z,100190.75
2023-03-01T21:15:29.311Z,100194.94
2023-03-01T21:17:56.013Z,100197.44
2023-03-01T21:20:22.628Z,100194.53
2023-03-01T21:22:49.019Z,100196.13
2023-03-01T21:25:15.518Z,100191.50
2023-03-01T21:27:41.885Z,100192.44
2023-03-01T21:30:08.704Z,100187.09
2023-03-01T21:32:35.090Z,100178.84
2023-03-01T21:35:01.463Z,100175.41
2023-03-01T21:37:27.834Z,100188.50
2023-03-01T21:39:54.148Z,100179.09
2023-03-01T21:42:20.452Z,100174.84
2023-03-01T21:44:46.818Z,100181.44
2023-03-01T21:47:13.223Z,100188.66
2023-03-01T21:49:39.524Z,100177.03
2023-03-01T21:52:05.861Z,100177.41
2023-03-01T21:54:34.067Z,100187.13
2023-03-01T21:57:00.523Z,100182.19
2023-03-01T21:59:28.179Z,100179.78
2023-03-01T22:01:54.511Z,100178.97
2023-03-01T22:04:22.457Z,100179.81
2023-03-01T22:06:54.185Z,100168.72
2023-03-01T22:09:22.886Z,100175.47
2023-03-01T22:11:53.849Z,100169.03
2023-03-01T22:14:21.502Z,100174.69
2023-03-01T22:16:51.082Z,100165.44
2023-03-01T22:19:17.831Z,100170.47
2023-03-01T22:21:49.005Z,100165.63
2023-03-01T22:24:16.181Z,100162.28
2023-03-01T22:26:44.651Z,100173.78
2023-03-01T22:29:14.474Z,100167.78
2023-03-01T22:31:41.340Z,100164.84
2023-03-01T22:34:08.870Z,100160.72
2023-03-01T22:36:35.553Z,100161.72
2023-03-01T22:39:02.558Z,100163.47
2023-03-01T22:41:31.254Z,100167.03
2023-03-01T22:43:57.851Z,100162.38
2023-03-01T22:46:25.460Z,100157.22
2023-03-01T22:48:52.267Z,100157.63
2023-03-01T22:51:21.508Z,100155.13
2023-03-01T22:53:48.124Z,100163.28
2023-03-01T22:56:28.984Z,100160.38
2023-03-01T22:58:57.059Z,100173.38
2023-03-01T23:01:25.025Z,100150.97
2023-03-01T23:03:53.468Z,100159.47
2023-03-01T23:06:21.259Z,100159.41
2023-03-01T23:08:53.583Z,100168.19
2023-03-01T23:11:21.230Z,100157.75
2023-03-01T23:13:48.399Z,100169.72
2023-03-01T23:16:15.984Z,100153.03
2023-03-01T23:18:43.343Z,100148.81
2023-03-01T23:21:15.602Z,100158.19
2023-03-01T23:23:42.897Z,100154.22
2023-03-01T23:26:09.678Z,100150.56
2023-03-01T23:28:40.202Z,100155.75
2023-03-01T23:31:09.854Z,100152.56
2023-03-01T23:33:38.915Z,100138.13
2023-03-01T23:36:19.989Z,100141.00
2023-03-01T23:38:47.444Z,100133.38
2023-03-01T23:41:16.107Z,100136.75
2023-03-01T23:43:47.079Z,100130.16
2023-03-01T23:46:14.944Z,100115.03
2023-03-01T23:48:42.750Z,100121.59
2023-03-01T23:51:09.633Z,100132.84
2023-03-01T23:53:39.128Z,100119.66
2023-03-01T23:56:06.364Z,100135.34
2023-03-01T23:58:32.726Z,100133.66
